createdAt,value
2022-12-19T00:01:20.250Z,1.00
2022-12-19T00:04:08.977Z,0.99
2022-12-19T00:06:59.696Z,1.01
2022-12-19T00:09:46.287Z,1.04
2022-12-19T00:12:33.138Z,1.08
2022-12-19T00:15:19.824Z,1.09
2022-12-19T00:18:06.540Z,1.09
2022-12-19T00:20:57.199Z,1.13
2022-12-19T00:23:44.665Z,1.16
2022-12-19T00:26:32.641Z,1.15
2022-12-19T00:29:19.349Z,1.14
2022-12-19T00:32:06.073Z,1.14
2022-12-19T00:34:52.924Z,1.12
2022-12-19T00:37:43.429Z,1.16
2022-12-19T00:40:36.466Z,1.21
2022-12-19T00:43:23.134Z,1.21
2022-12-19T00:46:11.143Z,1.17
2022-12-19T00:48:58.283Z,1.21
2022-12-19T00:51:44.861Z,1.24
2022-12-19T00:54:31.478Z,1.28
2022-12-19T00:57:21.100Z,1.31
2022-12-19T01:00:08.233Z,1.34
2022-12-19T01:02:54.954Z,1.38
2022-12-19T01:05:42.200Z,1.40
2022-12-19T01:08:29.357Z,1.41
2022-12-19T01:11:18.012Z,1.45
2022-12-19T01:14:04.783Z,1.25
2022-12-19T01:16:51.800Z,1.46
2022-12-19T01:19:43.592Z,1.43
2022-12-19T01:22:32.335Z,1.48
2022-12-19T01:25:19.030Z,1.53
2022-12-19T01:28:06.425Z,1.54
2022-12-19T01:30:53.378Z,1.55
2022-12-19T01:33:40.700Z,1.58
2022-12-19T01:36:34.641Z,1.59
2022-12-19T01:39:27.801Z,1.62
2022-12-19T01:42:19.567Z,1.65
2022-12-19T01:45:13.530Z,1.64
2022-12-19T01:48:00.449Z,1.66
2022-12-19T01:51:01.685Z,1.67
2022-12-19T01:53:53.818Z,1.70
2022-12-19T01:56:44.647Z,1.73
2022-12-19T01:59:31.369Z,1.76
2022-12-19T02:02:38.282Z,1.75
2022-12-19T02:05:26.000Z,1.77
2022-12-19T02:08:13.563Z,1.81
2022-12-19T02:11:00.228Z,1.82
2022-12-19T02:13:47.791Z,1.85
2022-12-19T02:16:34.515Z,1.84
2022-12-19T02:19:33.340Z,1.83
2022-12-19T02:22:22.988Z,1.86
2022-12-19T02:25:21.436Z,1.86
2022-12-19T02:28:11.063Z,1.89
2022-12-19T02:31:01.361Z,1.89
2022-12-19T02:33:57.807Z,1.87
2022-12-19T02:36:54.623Z,1.89
2022-12-19T02:39:48.468Z,1.91
2022-12-19T02:42:37.899Z,1.93
2022-12-19T02:45:28.758Z,1.96
2022-12-19T02:48:19.237Z,1.96
2022-12-19T02:51:06.230Z,1.94
2022-12-19T02:53:52.980Z,1.97
2022-12-19T02:57:08.807Z,1.96
2022-12-19T03:00:13.989Z,1.99
2022-12-19T03:03:23.390Z,2.00
2022-12-19T03:06:26.142Z,1.99
2022-12-19T03:09:19.015Z,2.02
2022-12-19T03:12:11.611Z,2.05
2022-12-19T03:15:01.354Z,2.09
2022-12-19T03:17:49.124Z,2.09
2022-12-19T03:20:48.593Z,2.11
2022-12-19T03:23:35.335Z,2.11
2022-12-19T03:26:23.794Z,2.13
2022-12-19T03:29:25.172Z,2.17
2022-12-19T03:32:13.827Z,2.08
2022-12-19T03:35:04.393Z,2.17
2022-12-19T03:37:52.375Z,2.19
2022-12-19T03:40:40.944Z,2.16
2022-12-19T03:43:28.889Z,2.17
2022-12-19T03:46:22.995Z,2.21
2022-12-19T03:49:09.809Z,2.21
2022-12-19T03:52:09.382Z,2.21
2022-12-19T03:55:04.816Z,2.20
2022-12-19T03:57:56.443Z,2.19
2022-12-19T04:00:48.656Z,2.22
2022-12-19T04:03:35.704Z,2.21
2022-12-19T04:06:22.890Z,2.22
2022-12-19T04:09:10.135Z,2.22
2022-12-19T04:12:02.090Z,2.21
2022-12-19T04:14:49.634Z,2.26
2022-12-19T04:17:42.851Z,2.28
2022-12-19T04:20:31.227Z,2.28
2022-12-19T04:23:22.196Z,2.30
2022-12-19T04:26:09.797Z,2.35
2022-12-19T04:28:58.770Z,2.36
2022-12-19T04:31:47.714Z,2.34
2022-12-19T04:34:36.886Z,2.35
2022-12-19T04:37:28.014Z,2.35
2022-12-19T04:40:14.780Z,2.37
2022-12-19T04:43:01.708Z,2.38
2022-12-19T04:45:50.626Z,2.39
2022-12-19T04:48:40.775Z,2.40
2022-12-19T04:51:30.451Z,2.41
2022-12-19T04:54:18.160Z,2.39
2022-12-19T04:57:05.484Z,2.41
2022-12-19T04:59:52.198Z,2.44
2022-12-19T05:02:40.357Z,2.45
2022-12-19T05:05:27.468Z,2.46
2022-12-19T05:08:14.167Z,2.45
2022-12-19T05:11:01.661Z,2.48
2022-12-19T05:13:49.930Z,2.50
2022-12-19T05:16:36.791Z,2.51
2022-12-19T05:19:23.528Z,2.51
2022-12-19T05:22:10.212Z,2.54
2022-12-19T05:24:58.409Z,2.57
2022-12-19T05:27:45.126Z,2.57
2022-12-19T05:30:31.781Z,2.61
2022-12-19T05:33:18.450Z,2.61
2022-12-19T05:36:05.284Z,2.65
2022-12-19T05:38:52.102Z,2.67
2022-12-19T05:41:39.170Z,2.69
2022-12-19T05:44:25.848Z,2.73
2022-12-19T05:47:12.973Z,2.76
2022-12-19T05:49:59.648Z,2.76
2022-12-19T05:52:46.358Z,2.83
2022-12-19T05:55:33.043Z,2.84
2022-12-19T05:58:19.692Z,2.86
2022-12-19T06:01:08.024Z,2.90
2022-12-19T06:03:55.030Z,2.91
2022-12-19T06:06:41.859Z,2.92
2022-12-19T06:09:28.601Z,2.98
2022-12-19T06:12:15.342Z,3.00
2022-12-19T06:15:02.492Z,3.03
2022-12-19T06:17:52.714Z,3.07
2022-12-19T06:20:39.464Z,3.12
2022-12-19T06:23:27.460Z,3.13
2022-12-19T06:26:19.379Z,3.17
2022-12-19T06:29:06.876Z,3.17
2022-12-19T06:31:53.882Z,3.20
2022-12-19T06:35:03.240Z,3.20
2022-12-19T06:37:48.397Z,3.25
2022-12-19T06:40:59.458Z,3.29
2022-12-19T06:43:53.451Z,3.29
2022-12-19T06:46:40.936Z,3.30
2022-12-19T06:49:28.306Z,3.30
2022-12-19T06:52:15.700Z,3.34
2022-12-19T06:55:06.815Z,3.35
2022-12-19T06:57:53.495Z,3.39
2022-12-19T07:00:41.445Z,3.39
2022-12-19T07:03:47.539Z,3.40
2022-12-19T07:06:34.515Z,3.44
2022-12-19T07:09:22.148Z,3.46
2022-12-19T07:12:08.850Z,3.47
2022-12-19T07:14:55.620Z,3.50
2022-12-19T07:17:42.666Z,3.51
2022-12-19T07:20:31.779Z,3.54
2022-12-19T07:23:21.053Z,3.55
2022-12-19T07:26:09.642Z,3.57
2022-12-19T07:28:56.444Z,3.61
2022-12-19T07:31:44.488Z,3.61
2022-12-19T07:34:33.708Z,3.63
2022-12-19T07:37:21.500Z,3.64
2022-12-19T07:40:08.387Z,3.66
2022-12-19T07:42:55.150Z,3.68
2022-12-19T07:45:41.863Z,3.68
2022-12-19T07:48:30.739Z,3.70
2022-12-19T07:51:17.605Z,3.72
2022-12-19T07:54:04.321Z,3.72
2022-12-19T07:56:51.168Z,3.76
2022-12-19T07:59:39.511Z,3.77
2022-12-19T08:02:26.584Z,3.80
2022-12-19T08:05:14.466Z,3.82
2022-12-19T08:08:03.640Z,3.85
2022-12-19T08:10:50.334Z,3.84
2022-12-19T08:13:43.144Z,3.88
2022-12-19T08:16:43.947Z,3.89
2022-12-19T08:19:39.814Z,3.90
2022-12-19T08:22:27.556Z,3.91
2022-12-19T08:25:14.501Z,3.93
2022-12-19T08:28:03.623Z,3.98
2022-12-19T08:30:50.397Z,4.02
2022-12-19T08:33:37.458Z,4.05
2022-12-19T08:36:24.215Z,4.07
2022-12-19T08:39:11.853Z,4.11
2022-12-19T08:41:58.613Z,4.13
2022-12-19T08:44:45.328Z,4.15
2022-12-19T08:47:32.108Z,4.15
2022-12-19T08:50:18.807Z,4.19
2022-12-19T08:53:08.087Z,4.21
2022-12-19T08:56:01.391Z,4.24
2022-12-19T08:58:51.278Z,4.28
2022-12-19T09:01:38.079Z,4.30
2022-12-19T09:05:54.545Z,4.31
2022-12-19T09:07:34.557Z,4.34
2022-12-19T09:10:25.337Z,4.38
2022-12-19T09:13:14.509Z,4.41
2022-12-19T09:16:06.047Z,4.44
2022-12-19T09:18:56.559Z,4.45
2022-12-19T09:21:43.293Z,4.45
2022-12-19T09:24:30.166Z,4.47
2022-12-19T09:27:16.879Z,4.44
2022-12-19T09:30:05.597Z,4.38
2022-12-19T09:32:53.443Z,4.41
2022-12-19T09:35:40.148Z,4.40
2022-12-19T09:38:28.014Z,4.42
2022-12-19T09:41:19.823Z,4.40
2022-12-19T09:44:06.432Z,4.38
2022-12-19T09:47:35.767Z,4.38
2022-12-19T09:50:41.422Z,4.40
2022-12-19T09:53:40.114Z,4.39
2022-12-19T09:56:29.428Z,4.38
2022-12-19T09:59:47.683Z,4.38
2022-12-19T10:02:41.920Z,4.35
2022-12-19T10:07:07.809Z,4.33
2022-12-19T10:09:54.080Z,4.34
2022-12-19T10:12:39.584Z,4.36
2022-12-19T10:15:37.425Z,4.37
2022-12-19T10:18:30.816Z,4.42
2022-12-19T10:21:50.702Z,4.43
2022-12-19T10:25:08.114Z,4.47
2022-12-19T10:27:58.489Z,4.51
2022-12-19T10:31:28.543Z,4.54
2022-12-19T10:34:18.891Z,4.50
2022-12-19T10:37:27.605Z,4.57
2022-12-19T10:40:34.478Z,4.61
2022-12-19T10:50:56.473Z,4.81
2022-12-19T11:13:31.302Z,5.11
2022-12-19T11:19:57.778Z,5.08
2022-12-19T11:28:36.035Z,5.07
2022-12-19T11:29:26.637Z,5.08
2022-12-19T11:30:36.276Z,5.09
2022-12-19T11:30:48.854Z,5.06
2022-12-19T11:32:00.228Z,5.05
2022-12-19T11:34:05.953Z,5.09
2022-12-19T11:37:11.272Z,5.10
2022-12-19T11:40:01.388Z,5.10
2022-12-19T11:43:25.668Z,5.13
2022-12-19T11:46:07.079Z,5.26
2022-12-19T11:48:56.748Z,5.31
2022-12-19T11:51:50.590Z,5.29
2022-12-19T11:54:56.110Z,5.35
2022-12-19T11:57:42.966Z,5.40
2022-12-19T12:00:30.354Z,5.40
2022-12-19T12:03:35.896Z,5.38
2022-12-19T12:06:28.050Z,5.43
2022-12-19T12:11:55.161Z,5.43
2022-12-19T12:22:53.825Z,5.40
2022-12-19T12:29:36.593Z,5.38
2022-12-19T12:31:01.592Z,5.35
2022-12-19T12:31:20.454Z,5.36
2022-12-19T12:31:50.787Z,5.42
2022-12-19T12:32:02.264Z,5.36
2022-12-19T12:35:51.821Z,5.47
2022-12-19T12:39:00.612Z,5.54
2022-12-19T12:42:06.498Z,5.54
2022-12-19T12:44:55.426Z,5.60
2022-12-19T12:47:43.023Z,5.62
2022-12-19T12:50:30.523Z,5.62
2022-12-19T12:53:22.546Z,5.68
2022-12-19T12:56:10.998Z,5.73
2022-12-19T12:59:02.922Z,5.74
2022-12-19T13:01:54.318Z,5.75
2022-12-19T13:04:43.033Z,5.78
2022-12-19T13:07:52.799Z,5.78
2022-12-19T13:10:52.694Z,5.83
2022-12-19T13:13:58.122Z,5.81
2022-12-19T13:16:45.695Z,5.76
2022-12-19T13:19:33.859Z,5.80
2022-12-19T13:22:22.281Z,5.80
2022-12-19T13:25:26.922Z,5.81
2022-12-19T13:28:15.781Z,5.82
2022-12-19T13:31:13.499Z,5.81
2022-12-19T13:34:16.573Z,5.78
2022-12-19T13:39:59.030Z,5.77
2022-12-19T13:40:33.149Z,5.76
2022-12-19T13:43:46.390Z,5.74
2022-12-19T13:46:33.204Z,5.76
2022-12-19T13:49:28.448Z,5.79
2022-12-19T13:52:17.190Z,5.79
2022-12-19T13:55:04.002Z,5.80
2022-12-19T13:57:54.824Z,5.79
2022-12-19T14:00:41.857Z,5.82
2022-12-19T14:03:46.744Z,5.82
2022-12-19T14:06:41.537Z,5.80
2022-12-19T14:11:25.457Z,5.80
2022-12-19T14:13:57.406Z,5.80
2022-12-19T14:16:05.657Z,5.82
2022-12-19T14:18:56.090Z,5.84
2022-12-19T14:22:03.778Z,5.83
2022-12-19T14:24:54.014Z,5.82
2022-12-19T14:28:18.428Z,5.84
2022-12-19T14:30:56.517Z,5.86
2022-12-19T14:34:04.743Z,5.90
2022-12-19T14:36:54.306Z,5.91
2022-12-19T14:39:41.366Z,5.93
2022-12-19T14:43:55.420Z,5.98
2022-12-19T14:52:35.579Z,6.03
2022-12-19T14:53:34.401Z,6.04
2022-12-19T14:54:28.918Z,6.06
2022-12-19T14:56:03.784Z,6.09
2022-12-19T14:58:57.214Z,6.11
2022-12-19T15:01:51.253Z,6.11
2022-12-19T15:05:01.314Z,6.13
2022-12-19T15:07:50.239Z,6.12
2022-12-19T15:11:05.182Z,6.11
2022-12-19T15:14:52.226Z,6.12
2022-12-19T15:17:04.740Z,6.16
2022-12-19T15:19:54.443Z,6.20
2022-12-19T15:22:41.081Z,6.23
2022-12-19T15:26:02.214Z,6.25
2022-12-19T15:28:37.058Z,6.30
2022-12-19T15:31:34.836Z,6.35
2022-12-19T15:34:48.299Z,6.41
2022-12-19T15:37:31.083Z,6.47
2022-12-19T15:40:18.333Z,6.49
2022-12-19T15:43:05.527Z,6.51
2022-12-19T15:45:58.275Z,6.51
2022-12-19T15:48:50.045Z,6.50
2022-12-19T15:51:36.803Z,6.49
2022-12-19T15:57:35.107Z,6.49
2022-12-19T16:00:26.218Z,6.48
2022-12-19T16:03:23.560Z,6.46
2022-12-19T16:06:14.747Z,6.46
2022-12-19T16:09:01.505Z,6.46
2022-12-19T16:11:49.256Z,6.45
2022-12-19T16:14:36.102Z,6.46
2022-12-19T16:17:24.776Z,6.48
2022-12-19T16:20:19.485Z,6.50
2022-12-19T16:23:07.393Z,6.51
2022-12-19T16:25:54.315Z,6.51
2022-12-19T16:28:40.949Z,6.52
2022-12-19T16:31:27.962Z,6.53
2022-12-19T16:34:19.391Z,6.54
2022-12-19T16:37:06.371Z,6.55
2022-12-19T16:39:52.949Z,6.54
2022-12-19T16:42:39.592Z,6.56
2022-12-19T16:45:26.645Z,6.56
2022-12-19T16:48:20.712Z,6.56
2022-12-19T16:51:16.218Z,6.55
2022-12-19T16:54:02.881Z,6.56
2022-12-19T16:56:50.297Z,6.60
2022-12-19T16:59:38.058Z,6.62
2022-12-19T17:02:35.358Z,6.64
2022-12-19T17:05:24.467Z,6.67
2022-12-19T17:08:12.599Z,6.65
2022-12-19T17:10:59.272Z,6.69
2022-12-19T17:13:47.789Z,6.71
2022-12-19T17:16:34.925Z,6.71
2022-12-19T17:19:21.929Z,6.73
2022-12-19T17:22:16.222Z,6.77
2022-12-19T17:25:12.379Z,6.77
2022-12-19T17:27:59.422Z,6.80
2022-12-19T17:30:51.631Z,6.84
2022-12-19T17:33:39.868Z,6.87
2022-12-19T17:36:32.609Z,6.90
2022-12-19T17:39:28.494Z,6.92
2022-12-19T17:42:23.846Z,6.93
2022-12-19T17:45:10.755Z,6.96
2022-12-19T17:48:02.816Z,6.97
2022-12-19T17:50:49.749Z,6.98
2022-12-19T17:53:36.367Z,6.94
2022-12-19T17:56:22.982Z,6.98
2022-12-19T17:59:09.686Z,6.98
2022-12-19T18:01:56.710Z,6.98
2022-12-19T18:04:43.463Z,6.96
2022-12-19T18:07:30.096Z,6.93
2022-12-19T18:10:20.990Z,6.94
2022-12-19T18:13:07.655Z,6.95
2022-12-19T18:15:56.636Z,6.95
2022-12-19T18:18:43.703Z,6.96
2022-12-19T18:21:30.345Z,6.92
2022-12-19T18:24:17.088Z,6.94
2022-12-19T18:27:03.687Z,6.95
2022-12-19T18:29:50.628Z,6.94
2022-12-19T18:32:37.577Z,6.96
2022-12-19T18:35:29.199Z,6.98
2022-12-19T18:38:20.147Z,7.00
2022-12-19T18:41:09.347Z,6.77
2022-12-19T18:43:56.013Z,7.01
2022-12-19T18:46:42.809Z,6.98
2022-12-19T18:49:29.519Z,7.12
2022-12-19T18:52:16.149Z,7.20
2022-12-19T18:55:02.803Z,7.26
2022-12-19T18:57:49.865Z,7.39
2022-12-19T19:00:37.598Z,7.58
2022-12-19T19:03:28.901Z,7.61
2022-12-19T19:06:19.698Z,7.62
2022-12-19T19:09:14.400Z,7.72
2022-12-19T19:12:01.021Z,7.79
2022-12-19T19:14:47.582Z,7.91
2022-12-19T19:17:34.219Z,7.92
2022-12-19T19:20:20.805Z,7.99
2022-12-19T19:23:08.579Z,8.13
2022-12-19T19:25:55.571Z,8.16
2022-12-19T19:28:44.824Z,8.22
2022-12-19T19:31:35.214Z,8.27
2022-12-19T19:34:24.321Z,8.25
2022-12-19T19:37:13.732Z,8.00
2022-12-19T19:40:00.286Z,8.06
2022-12-19T19:42:46.913Z,7.97
2022-12-19T19:45:36.804Z,7.90
2022-12-19T19:48:27.907Z,7.86
2022-12-19T19:51:15.652Z,7.81
2022-12-19T19:54:05.306Z,7.80
2022-12-19T19:56:52.017Z,7.78
2022-12-19T19:59:38.830Z,7.86
2022-12-19T20:02:25.766Z,7.93
2022-12-19T20:05:18.075Z,8.09
2022-12-19T20:08:05.130Z,8.26
2022-12-19T20:10:55.918Z,8.38
2022-12-19T20:13:42.748Z,8.53
2022-12-19T20:16:29.571Z,8.73
2022-12-19T20:19:16.458Z,8.88
2022-12-19T20:22:03.447Z,9.08
2022-12-19T20:24:50.463Z,9.21
2022-12-19T20:27:37.190Z,9.26
2022-12-19T20:30:24.121Z,9.30
2022-12-19T20:33:11.614Z,9.25
2022-12-19T20:35:58.448Z,9.35
2022-12-19T20:38:45.977Z,9.45
2022-12-19T20:41:33.546Z,9.40
2022-12-19T20:44:24.390Z,9.47
2022-12-19T20:47:11.344Z,9.48
2022-12-19T20:49:57.983Z,9.55
2022-12-19T20:52:44.663Z,9.62
2022-12-19T20:55:31.517Z,9.62
2022-12-19T20:58:18.261Z,9.69
2022-12-19T21:01:15.983Z,9.69
2022-12-19T21:04:04.576Z,9.68
2022-12-19T21:06:51.461Z,9.62
2022-12-19T21:09:38.138Z,9.66
2022-12-19T21:12:24.788Z,9.70
2022-12-19T21:15:11.532Z,9.70
2022-12-19T21:17:58.219Z,9.70
2022-12-19T21:20:45.107Z,9.75
2022-12-19T21:23:31.898Z,9.72
2022-12-19T21:26:19.128Z,9.68
2022-12-19T21:29:05.953Z,9.64
2022-12-19T21:31:55.502Z,9.61
2022-12-19T21:34:42.161Z,9.63
2022-12-19T21:37:29.152Z,9.69
2022-12-19T21:40:16.662Z,9.69
2022-12-19T21:43:11.214Z,9.70
2022-12-19T21:46:09.261Z,9.77
2022-12-19T21:48:57.430Z,9.60
2022-12-19T21:51:44.037Z,9.81
2022-12-19T21:54:30.682Z,9.79
2022-12-19T21:57:17.372Z,9.81
2022-12-19T22:00:04.858Z,9.81
2022-12-19T22:03:12.711Z,9.89
2022-12-19T22:05:58.264Z,9.93
2022-12-19T22:08:45.763Z,9.90
2022-12-19T22:11:32.839Z,9.93
2022-12-19T22:14:19.554Z,9.88
2022-12-19T22:17:06.221Z,9.90
2022-12-19T22:19:53.002Z,9.95
2022-12-19T22:22:39.622Z,9.96
2022-12-19T22:25:26.315Z,9.96
2022-12-19T22:28:12.882Z,10.02
2022-12-19T22:30:59.687Z,9.99
2022-12-19T22:33:46.844Z,9.98
2022-12-19T22:36:34.608Z,10.00
2022-12-19T22:39:22.423Z,10.01
2022-12-19T22:42:09.031Z,10.03
2022-12-19T22:44:56.417Z,10.06
2022-12-19T22:47:43.070Z,10.18
2022-12-19T22:50:29.719Z,10.20
2022-12-19T22:53:16.366Z,10.22
2022-12-19T22:56:06.272Z,10.21
2022-12-19T22:58:53.709Z,10.15
2022-12-19T23:01:42.043Z,10.09
2022-12-19T23:04:29.071Z,10.09
2022-12-19T23:07:16.091Z,10.12
2022-12-19T23:10:03.410Z,10.12
2022-12-19T23:12:50.187Z,10.10
2022-12-19T23:15:36.838Z,10.08
2022-12-19T23:18:23.569Z,10.13
2022-12-19T23:21:10.213Z,10.15
2022-12-19T23:23:59.275Z,10.26
2022-12-19T23:26:45.909Z,10.27
2022-12-19T23:29:35.496Z,10.25
2022-12-19T23:32:22.242Z,10.30
2022-12-19T23:35:10.069Z,10.34
2022-12-19T23:37:56.690Z,10.37
2022-12-19T23:40:43.265Z,10.38
2022-12-19T23:43:30.083Z,10.48
2022-12-19T23:46:18.447Z,10.48
2022-12-19T23:49:05.111Z,10.47
2022-12-19T23:51:51.742Z,10.49
2022-12-19T23:54:38.393Z,10.46
2022-12-19T23:57:25.045Z,10.45
